createdAt,value
2022-12-31T00:00:03.031Z,85
2022-12-31T00:16:00.580Z,86
2022-12-31T00:31:02.746Z,86
2022-12-31T00:46:00.184Z,86
2022-12-31T01:00:02.315Z,86
2022-12-31T01:16:04.664Z,87
2022-12-31T01:31:02.227Z,87
2022-12-31T01:46:04.119Z,87
2022-12-31T02:00:01.215Z,87
2022-12-31T02:16:03.624Z,87
2022-12-31T02:31:00.943Z,87
2022-12-31T02:46:02.940Z,86
2022-12-31T02:59:59.998Z,86
2022-12-31T03:16:02.775Z,86
2022-12-31T03:31:01.922Z,87
2022-12-31T03:46:02.249Z,88
2022-12-31T04:00:04.185Z,89
2022-12-31T04:16:01.560Z,88
2022-12-31T04:31:03.588Z,87
2022-12-31T04:46:00.888Z,86
2022-12-31T05:00:02.811Z,86
2022-12-31T05:16:00.638Z,86
2022-12-31T05:31:02.815Z,86
2022-12-31T05:46:04.790Z,86
2022-12-31T06:00:01.850Z,88
2022-12-31T06:16:04.163Z,89
2022-12-31T06:31:01.432Z,90
2022-12-31T06:46:03.701Z,91
2022-12-31T07:00:00.639Z,91
2022-12-31T07:16:03.239Z,91
2022-12-31T07:31:00.257Z,91
2022-12-31T07:46:03.035Z,91
2022-12-31T08:00:04.174Z,92
2022-12-31T08:16:01.581Z,92
2022-12-31T08:31:03.781Z,92
2022-12-31T08:46:01.019Z,91
2022-12-31T09:00:03.477Z,88
2022-12-31T09:16:00.179Z,87
2022-12-31T09:31:02.568Z,86
2022-12-31T09:46:04.565Z,87
2022-12-31T10:00:01.821Z,85
2022-12-31T10:16:03.804Z,82
2022-12-31T10:31:01.411Z,81
2022-12-31T10:46:03.259Z,80
2022-12-31T11:00:00.215Z,78
2022-12-31T11:16:02.523Z,76
2022-12-31T11:31:04.780Z,76
2022-12-31T11:46:01.994Z,75
2022-12-31T12:00:03.869Z,75
2022-12-31T12:16:01.313Z,76
2022-12-31T12:31:03.629Z,75
2022-12-31T12:46:00.756Z,74
2022-12-31T13:00:02.618Z,73
2022-12-31T13:16:05.038Z,73
2022-12-31T13:31:06.816Z,73
2022-12-31T13:46:04.209Z,72
2022-12-31T14:00:01.323Z,72
2022-12-31T14:16:03.639Z,72
2022-12-31T14:31:00.783Z,75
2022-12-31T14:46:03.147Z,78
2022-12-31T14:59:59.937Z,79
2022-12-31T15:16:02.228Z,81
2022-12-31T15:31:04.388Z,81
2022-12-31T15:46:02.923Z,82
2022-12-31T16:00:04.546Z,84
2022-12-31T16:16:01.037Z,84
2022-12-31T16:31:03.432Z,86
2022-12-31T16:46:00.436Z,87
2022-12-31T17:00:02.478Z,88
2022-12-31T17:16:00.008Z,88
2022-12-31T17:31:02.320Z,89
2022-12-31T17:46:04.537Z,90
2022-12-31T18:00:01.359Z,91
2022-12-31T18:16:03.758Z,92
2022-12-31T18:31:00.832Z,92
2022-12-31T18:46:03.378Z,92
2022-12-31T19:00:00.079Z,92
2022-12-31T19:16:02.425Z,93
2022-12-31T19:31:04.485Z,92
2022-12-31T19:46:01.716Z,92
2022-12-31T20:00:03.472Z,93
2022-12-31T20:16:00.803Z,92
2022-12-31T20:31:03.001Z,91
2022-12-31T20:46:00.158Z,91
2022-12-31T21:00:02.312Z,90
2022-12-31T21:16:04.549Z,90
2022-12-31T21:31:01.782Z,89
2022-12-31T21:46:10.296Z,90
2022-12-31T22:00:31.831Z,90
2022-12-31T22:16:05.680Z,90
2022-12-31T22:31:00.907Z,90
2022-12-31T22:46:03.847Z,91
2022-12-31T22:59:59.762Z,90
2022-12-31T23:16:02.388Z,90
2022-12-31T23:31:04.660Z,90
2022-12-31T23:46:01.588Z,90
